createdAt,value
2022-12-09T00:00:56.533Z,0.40
2022-12-09T00:03:23.964Z,0.39
2022-12-09T00:05:50.965Z,0.40
2022-12-09T00:08:17.667Z,0.39
2022-12-09T00:10:45.428Z,0.37
2022-12-09T00:13:12.254Z,0.37
2022-12-09T00:15:42.661Z,0.37
2022-12-09T00:18:09.664Z,0.37
2022-12-09T00:20:36.314Z,0.31
2022-12-09T00:23:03.110Z,0.33
2022-12-09T00:25:29.762Z,0.31
2022-12-09T00:28:05.632Z,0.30
2022-12-09T00:30:32.264Z,0.35
2022-12-09T00:32:59.213Z,0.32
2022-12-09T00:35:25.770Z,0.28
2022-12-09T00:37:52.417Z,0.29
2022-12-09T00:40:19.241Z,0.22
2022-12-09T00:42:45.818Z,0.19
2022-12-09T00:45:12.311Z,0.16
2022-12-09T00:47:38.994Z,0.14
2022-12-09T00:50:06.786Z,0.09
2022-12-09T00:52:33.763Z,0.05
2022-12-09T00:55:00.363Z,0.02
2022-12-09T00:57:27.141Z,-0.01
2022-12-09T00:59:53.689Z,0.01
2022-12-09T01:02:20.561Z,-0.02
2022-12-09T01:04:49.850Z,-0.05
2022-12-09T01:07:16.399Z,-0.08
2022-12-09T01:09:42.880Z,-0.15
2022-12-09T01:12:09.396Z,-0.19
2022-12-09T01:14:36.053Z,-0.28
2022-12-09T01:17:02.703Z,-0.30
2022-12-09T01:19:29.282Z,-0.36
2022-12-09T01:21:56.076Z,-0.42
2022-12-09T01:24:23.045Z,-0.41
2022-12-09T01:26:49.698Z,-0.44
2022-12-09T01:29:16.255Z,-0.56
2022-12-09T01:31:42.908Z,-0.59
2022-12-09T01:34:09.597Z,-0.62
2022-12-09T01:36:36.217Z,-0.60
2022-12-09T01:39:02.883Z,-0.59
2022-12-09T01:41:29.559Z,-0.64
2022-12-09T01:44:11.159Z,-0.63
2022-12-09T01:46:38.173Z,-0.68
2022-12-09T01:49:06.046Z,-0.68
2022-12-09T01:51:32.852Z,-0.71
2022-12-09T01:53:59.453Z,-0.68
2022-12-09T01:56:29.224Z,-0.69
2022-12-09T01:58:58.049Z,-0.66
2022-12-09T02:01:24.756Z,-0.65
2022-12-09T02:03:51.624Z,-0.66
2022-12-09T02:06:18.540Z,-0.66
2022-12-09T02:08:46.399Z,-0.59
2022-12-09T02:11:31.976Z,-0.59
2022-12-09T02:14:01.538Z,-0.60
2022-12-09T02:16:29.863Z,-0.64
2022-12-09T02:19:15.052Z,-0.61
2022-12-09T02:21:47.970Z,-0.60
2022-12-09T02:24:20.667Z,-0.56
2022-12-09T02:26:53.051Z,-0.50
2022-12-09T02:29:31.852Z,-0.52
2022-12-09T02:32:04.577Z,-0.54
2022-12-09T02:34:33.013Z,-0.53
2022-12-09T02:37:04.939Z,-0.53
2022-12-09T02:39:50.050Z,-0.52
2022-12-09T02:42:17.669Z,-0.46
2022-12-09T02:44:46.714Z,-0.46
2022-12-09T02:47:15.548Z,-0.42
2022-12-09T02:49:43.399Z,-0.41
2022-12-09T02:52:10.405Z,-0.38
2022-12-09T02:54:38.724Z,-0.39
2022-12-09T02:57:08.656Z,-0.38
2022-12-09T02:59:35.148Z,-0.41
2022-12-09T03:02:15.024Z,-0.44
2022-12-09T03:04:45.068Z,-0.41
2022-12-09T03:07:30.257Z,-0.42
2022-12-09T03:10:06.724Z,-0.39
2022-12-09T03:12:34.890Z,-0.43
2022-12-09T03:15:03.889Z,-0.46
2022-12-09T03:17:37.736Z,-0.53
2022-12-09T03:20:07.018Z,-0.49
2022-12-09T03:22:35.583Z,-0.49
2022-12-09T03:25:07.007Z,-0.48
2022-12-09T03:27:54.122Z,-0.42
2022-12-09T03:30:20.661Z,-0.39
2022-12-09T03:32:48.040Z,-0.39
2022-12-09T03:35:17.652Z,-0.37
2022-12-09T03:37:44.849Z,-0.38
2022-12-09T03:40:14.626Z,-0.36
2022-12-09T03:42:49.290Z,-0.41
2022-12-09T03:45:17.621Z,-0.38
2022-12-09T03:47:44.525Z,-0.39
2022-12-09T03:50:12.296Z,-0.36
2022-12-09T03:52:44.297Z,-0.39
2022-12-09T03:55:19.954Z,-0.43
2022-12-09T03:57:48.343Z,-0.46
2022-12-09T04:00:15.657Z,-0.31
2022-12-09T04:02:42.819Z,-0.29
2022-12-09T04:05:09.835Z,-0.28
2022-12-09T04:07:37.102Z,-0.31
2022-12-09T04:10:04.906Z,-0.33
2022-12-09T04:12:32.064Z,-0.32
2022-12-09T04:14:58.683Z,-0.30
2022-12-09T04:17:25.566Z,-0.31
2022-12-09T04:19:52.361Z,-0.25
2022-12-09T04:22:19.077Z,-0.14
2022-12-09T04:24:45.584Z,-0.33
2022-12-09T04:27:12.564Z,-0.51
2022-12-09T04:29:39.888Z,-0.56
2022-12-09T04:32:06.903Z,-0.68
2022-12-09T04:34:33.968Z,-0.64
2022-12-09T04:37:00.986Z,-0.59
2022-12-09T04:39:27.722Z,-0.55
2022-12-09T04:41:54.373Z,-0.55
2022-12-09T04:44:20.942Z,-0.51
2022-12-09T04:46:47.746Z,-0.56
2022-12-09T04:49:14.266Z,-0.55
2022-12-09T04:51:41.017Z,-0.54
2022-12-09T04:54:07.950Z,-0.49
2022-12-09T04:56:34.434Z,-0.51
2022-12-09T04:59:01.161Z,-0.53
2022-12-09T05:01:31.142Z,-0.54
2022-12-09T05:03:58.720Z,-0.55
2022-12-09T05:06:26.116Z,-0.53
2022-12-09T05:08:53.329Z,-0.51
2022-12-09T05:11:20.819Z,-0.51
2022-12-09T05:13:47.921Z,-0.45
2022-12-09T05:16:17.282Z,-0.43
2022-12-09T05:18:44.947Z,-0.41
2022-12-09T05:21:13.141Z,-0.39
2022-12-09T05:23:40.044Z,-0.38
2022-12-09T05:26:08.239Z,-0.36
2022-12-09T05:28:35.100Z,-0.37
2022-12-09T05:31:02.737Z,-0.35
2022-12-09T05:33:30.165Z,-0.32
2022-12-09T05:35:57.393Z,-0.34
2022-12-09T05:38:24.598Z,-0.36
2022-12-09T05:40:51.417Z,-0.35
2022-12-09T05:43:18.884Z,-0.33
2022-12-09T05:45:45.550Z,-0.34
2022-12-09T05:48:12.487Z,-0.32
2022-12-09T05:50:39.437Z,-0.29
2022-12-09T05:53:06.250Z,-0.28
2022-12-09T05:55:32.811Z,-0.27
2022-12-09T05:57:59.703Z,-0.25
2022-12-09T06:00:26.799Z,-0.24
2022-12-09T06:02:53.530Z,-0.24
2022-12-09T06:05:20.220Z,-0.25
2022-12-09T06:07:47.365Z,-0.24
2022-12-09T06:10:14.693Z,-0.23
2022-12-09T06:12:41.748Z,-0.23
2022-12-09T06:15:10.614Z,-0.21
2022-12-09T06:17:38.011Z,-0.23
2022-12-09T06:20:05.457Z,-0.22
2022-12-09T06:22:32.651Z,-0.21
2022-12-09T06:24:59.298Z,-0.21
2022-12-09T06:27:25.876Z,-0.18
2022-12-09T06:29:52.459Z,-0.21
2022-12-09T06:32:19.037Z,-0.26
2022-12-09T06:34:45.832Z,-0.25
2022-12-09T06:37:12.728Z,-0.29
2022-12-09T06:39:39.598Z,-0.28
2022-12-09T06:42:06.324Z,-0.23
2022-12-09T06:44:33.195Z,-0.24
2022-12-09T06:47:00.287Z,-0.28
2022-12-09T06:49:27.691Z,-0.33
2022-12-09T06:51:54.602Z,-0.38
2022-12-09T06:54:21.349Z,-0.32
2022-12-09T06:56:48.452Z,-0.33
2022-12-09T06:59:15.105Z,-0.29
2022-12-09T07:01:41.902Z,-0.27
2022-12-09T07:04:12.685Z,-0.30
2022-12-09T07:06:41.040Z,-0.31
2022-12-09T07:09:12.455Z,-0.36
2022-12-09T07:11:40.465Z,-0.36
2022-12-09T07:14:07.469Z,-0.36
2022-12-09T07:16:35.147Z,-0.32
2022-12-09T07:19:02.266Z,-0.31
2022-12-09T07:21:29.724Z,-0.28
2022-12-09T07:24:00.012Z,-0.27
2022-12-09T07:26:26.898Z,-0.27
2022-12-09T07:28:53.775Z,-0.25
2022-12-09T07:31:22.968Z,-0.22
2022-12-09T07:33:50.244Z,-0.14
2022-12-09T07:36:21.203Z,-0.08
2022-12-09T07:38:48.416Z,-0.04
2022-12-09T07:41:21.077Z,-0.01
2022-12-09T07:43:48.190Z,0.00
2022-12-09T07:46:15.704Z,0.03
2022-12-09T07:48:42.522Z,0.05
2022-12-09T07:51:09.217Z,0.11
2022-12-09T07:53:36.622Z,0.09
2022-12-09T07:56:05.288Z,0.11
2022-12-09T07:58:32.248Z,0.18
2022-12-09T08:01:04.994Z,0.15
2022-12-09T08:03:31.927Z,0.13
2022-12-09T08:05:58.724Z,0.16
2022-12-09T08:08:25.677Z,0.20
2022-12-09T08:10:53.244Z,0.26
2022-12-09T08:13:21.138Z,0.29
2022-12-09T08:15:48.161Z,0.39
2022-12-09T08:18:15.000Z,0.42
2022-12-09T08:20:42.025Z,0.43
2022-12-09T08:23:09.000Z,0.42
2022-12-09T08:25:35.965Z,0.42
2022-12-09T08:28:03.000Z,0.45
2022-12-09T08:30:29.783Z,0.59
2022-12-09T08:32:57.241Z,0.58
2022-12-09T08:35:24.326Z,0.45
2022-12-09T08:37:50.958Z,0.45
2022-12-09T08:40:17.936Z,0.39
2022-12-09T08:42:44.590Z,0.40
2022-12-09T08:45:11.352Z,0.42
2022-12-09T08:47:38.139Z,0.41
2022-12-09T08:50:06.531Z,0.41
2022-12-09T08:52:38.813Z,0.47
2022-12-09T08:55:07.747Z,0.46
2022-12-09T08:57:34.514Z,0.45
2022-12-09T09:00:01.302Z,0.46
2022-12-09T09:02:28.275Z,0.46
2022-12-09T09:04:55.108Z,0.52
2022-12-09T09:07:22.718Z,0.55
2022-12-09T09:09:49.673Z,0.59
2022-12-09T09:12:16.790Z,0.59
2022-12-09T09:14:43.412Z,0.61
2022-12-09T09:17:10.220Z,0.64
2022-12-09T09:19:37.028Z,0.63
2022-12-09T09:22:04.400Z,0.68
2022-12-09T09:24:31.993Z,0.67
2022-12-09T09:26:58.928Z,0.79
2022-12-09T09:29:25.724Z,0.72
2022-12-09T09:31:54.710Z,0.69
2022-12-09T09:34:22.334Z,0.90
2022-12-09T09:36:49.457Z,0.78
2022-12-09T09:39:16.769Z,0.78
2022-12-09T09:41:54.522Z,0.80
2022-12-09T09:44:24.196Z,0.73
2022-12-09T09:46:52.493Z,0.77
2022-12-09T09:49:25.451Z,0.82
2022-12-09T09:51:52.690Z,0.88
2022-12-09T09:54:19.446Z,0.93
2022-12-09T09:56:55.132Z,0.94
2022-12-09T09:59:25.414Z,0.86
2022-12-09T10:02:03.280Z,0.84
2022-12-09T10:04:39.438Z,0.83
2022-12-09T10:07:44.888Z,0.88
2022-12-09T10:10:15.047Z,0.91
2022-12-09T10:13:06.149Z,0.95
2022-12-09T10:15:39.928Z,0.97
2022-12-09T10:18:28.001Z,1.03
2022-12-09T10:20:54.898Z,1.18
2022-12-09T10:23:22.577Z,1.24
2022-12-09T10:25:52.865Z,1.28
2022-12-09T10:28:20.821Z,1.28
2022-12-09T10:30:48.677Z,1.25
2022-12-09T10:33:16.717Z,1.17
2022-12-09T10:35:43.553Z,1.21
2022-12-09T10:38:12.594Z,1.18
2022-12-09T10:40:45.958Z,1.12
2022-12-09T10:43:40.383Z,1.31
2022-12-09T10:46:33.588Z,1.31
2022-12-09T10:49:04.094Z,1.11
2022-12-09T10:51:32.186Z,1.09
2022-12-09T10:54:01.122Z,1.07
2022-12-09T10:56:29.792Z,1.07
2022-12-09T10:59:06.111Z,1.13
2022-12-09T11:01:47.423Z,1.14
2022-12-09T11:04:14.255Z,1.14
2022-12-09T11:06:41.708Z,1.17
2022-12-09T11:09:19.181Z,1.24
2022-12-09T11:11:47.438Z,1.45
2022-12-09T11:14:25.725Z,1.48
2022-12-09T11:17:12.952Z,1.58
2022-12-09T11:19:40.879Z,1.68
2022-12-09T11:22:14.392Z,1.62
2022-12-09T11:24:41.624Z,1.61
2022-12-09T11:27:38.157Z,1.52
2022-12-09T11:30:12.823Z,1.62
2022-12-09T11:32:55.767Z,1.50
2022-12-09T11:35:28.803Z,1.32
2022-12-09T11:37:56.664Z,1.23
2022-12-09T11:40:23.766Z,1.25
2022-12-09T11:42:54.065Z,1.31
2022-12-09T11:45:37.115Z,1.35
2022-12-09T11:48:29.875Z,1.41
2022-12-09T11:50:53.237Z,1.44
2022-12-09T11:53:25.628Z,1.42
2022-12-09T11:56:07.999Z,1.45
2022-12-09T11:58:53.320Z,1.48
2022-12-09T12:01:45.909Z,1.52
2022-12-09T12:04:15.223Z,1.56
2022-12-09T12:07:01.869Z,1.60
2022-12-09T12:09:37.874Z,1.62
2022-12-09T12:12:04.515Z,1.69
2022-12-09T12:14:31.633Z,1.74
2022-12-09T12:17:07.237Z,1.75
2022-12-09T12:19:35.456Z,1.82
2022-12-09T12:22:02.032Z,1.83
2022-12-09T12:24:36.233Z,2.02
2022-12-09T12:27:28.991Z,1.97
2022-12-09T12:29:55.506Z,2.15
2022-12-09T12:32:39.184Z,1.98
2022-12-09T12:35:18.227Z,1.86
2022-12-09T12:37:44.794Z,1.85
2022-12-09T12:40:26.360Z,1.91
2022-12-09T12:43:30.825Z,1.80
2022-12-09T12:46:17.704Z,1.68
2022-12-09T12:49:02.861Z,1.66
2022-12-09T12:51:54.379Z,1.66
2022-12-09T12:54:30.498Z,1.76
2022-12-09T12:57:18.759Z,1.68
2022-12-09T12:59:54.544Z,1.73
2022-12-09T13:02:21.106Z,1.59
2022-12-09T13:04:47.834Z,1.65
2022-12-09T13:07:27.870Z,1.63
2022-12-09T13:10:07.941Z,1.59
2022-12-09T13:12:54.091Z,1.59
2022-12-09T13:15:41.505Z,1.55
2022-12-09T13:18:27.359Z,1.71
2022-12-09T13:20:55.143Z,1.63
2022-12-09T13:23:48.875Z,1.70
2022-12-09T13:26:27.383Z,1.70
2022-12-09T13:28:56.657Z,1.57
2022-12-09T13:31:28.230Z,1.60
2022-12-09T13:34:13.398Z,1.69
2022-12-09T13:36:46.401Z,1.73
2022-12-09T13:39:13.993Z,1.73
2022-12-09T13:42:01.153Z,1.72
2022-12-09T13:44:31.104Z,1.54
2022-12-09T13:47:24.657Z,1.52
2022-12-09T13:49:56.995Z,1.54
2022-12-09T13:52:43.982Z,1.65
2022-12-09T13:55:23.754Z,1.71
2022-12-09T13:57:57.216Z,1.68
2022-12-09T14:00:23.897Z,1.67
2022-12-09T14:03:06.234Z,1.68
2022-12-09T14:05:35.981Z,1.80
2022-12-09T14:08:23.805Z,1.78
2022-12-09T14:10:52.222Z,1.72
2022-12-09T14:13:22.679Z,1.73
2022-12-09T14:16:09.237Z,1.70
2022-12-09T14:18:35.880Z,1.64
2022-12-09T14:21:17.769Z,1.63
2022-12-09T14:24:02.754Z,1.65
2022-12-09T14:26:36.177Z,1.65
2022-12-09T14:29:03.315Z,1.68
2022-12-09T14:31:48.721Z,1.72
2022-12-09T14:34:38.303Z,1.69
2022-12-09T14:37:22.763Z,1.70
2022-12-09T14:40:16.032Z,1.74
2022-12-09T14:42:42.659Z,1.77
2022-12-09T14:45:16.582Z,1.80
2022-12-09T14:47:45.746Z,1.78
2022-12-09T14:50:15.554Z,1.81
2022-12-09T14:52:57.640Z,1.80
2022-12-09T14:55:25.879Z,1.73
2022-12-09T14:57:53.570Z,1.75
2022-12-09T15:00:26.511Z,1.73
2022-12-09T15:03:30.262Z,1.66
2022-12-09T15:05:40.240Z,1.64
2022-12-09T15:08:06.821Z,1.61
2022-12-09T15:10:38.238Z,1.61
2022-12-09T15:13:05.592Z,1.58
2022-12-09T15:15:36.818Z,1.59
2022-12-09T15:18:03.386Z,1.58
2022-12-09T15:20:37.153Z,1.55
2022-12-09T15:23:06.085Z,1.57
2022-12-09T15:25:34.785Z,1.54
2022-12-09T15:28:03.723Z,1.51
2022-12-09T15:30:32.045Z,1.52
2022-12-09T15:32:58.664Z,1.51
2022-12-09T15:35:27.928Z,1.52
2022-12-09T15:37:55.902Z,1.54
2022-12-09T15:40:22.923Z,1.52
2022-12-09T15:42:52.260Z,1.51
2022-12-09T15:45:23.959Z,1.48
2022-12-09T15:47:53.357Z,1.54
2022-12-09T15:50:22.444Z,1.56
2022-12-09T15:52:54.431Z,1.52
2022-12-09T15:55:23.867Z,1.49
2022-12-09T15:57:51.903Z,1.50
2022-12-09T16:00:18.995Z,1.48
2022-12-09T16:02:46.223Z,1.48
2022-12-09T16:05:13.038Z,1.50
2022-12-09T16:07:52.060Z,1.50
2022-12-09T16:10:18.832Z,1.47
2022-12-09T16:12:45.394Z,1.48
2022-12-09T16:15:13.665Z,1.43
2022-12-09T16:17:55.006Z,1.46
2022-12-09T16:20:34.599Z,1.54
2022-12-09T16:23:02.834Z,1.46
2022-12-09T16:25:34.224Z,1.47
2022-12-09T16:28:02.868Z,1.48
2022-12-09T16:30:30.827Z,1.45
2022-12-09T16:32:58.501Z,1.44
2022-12-09T16:35:28.351Z,1.43
2022-12-09T16:37:54.906Z,1.41
2022-12-09T16:40:21.564Z,1.46
2022-12-09T16:42:49.025Z,1.47
2022-12-09T16:45:21.703Z,1.47
2022-12-09T16:47:52.391Z,1.45
2022-12-09T16:50:18.988Z,1.37
2022-12-09T16:52:45.600Z,1.33
2022-12-09T16:55:32.396Z,1.37
2022-12-09T16:57:59.784Z,1.40
2022-12-09T17:00:26.578Z,1.37
2022-12-09T17:02:53.114Z,1.34
2022-12-09T17:05:19.628Z,1.25
2022-12-09T17:07:46.282Z,1.30
2022-12-09T17:10:13.877Z,1.24
2022-12-09T17:12:40.577Z,1.23
2022-12-09T17:15:07.424Z,1.25
2022-12-09T17:17:33.927Z,1.24
2022-12-09T17:20:00.510Z,1.25
2022-12-09T17:22:27.147Z,1.26
2022-12-09T17:24:53.702Z,1.29
2022-12-09T17:27:20.262Z,1.28
2022-12-09T17:29:46.830Z,1.28
2022-12-09T17:32:13.905Z,1.27
2022-12-09T17:34:40.545Z,1.25
2022-12-09T17:37:07.488Z,1.23
2022-12-09T17:39:34.140Z,1.20
2022-12-09T17:42:01.086Z,1.21
2022-12-09T17:44:27.807Z,1.17
2022-12-09T17:46:54.362Z,1.13
2022-12-09T17:49:21.026Z,1.11
2022-12-09T17:51:47.625Z,1.13
2022-12-09T17:54:14.268Z,1.04
2022-12-09T17:56:40.801Z,0.99
2022-12-09T17:59:09.276Z,0.95
2022-12-09T18:01:37.190Z,0.92
2022-12-09T18:04:11.874Z,0.87
2022-12-09T18:06:39.804Z,0.78
2022-12-09T18:09:07.643Z,0.73
2022-12-09T18:11:34.342Z,0.72
2022-12-09T18:14:01.398Z,0.65
2022-12-09T18:16:30.174Z,0.59
2022-12-09T18:19:00.877Z,0.62
2022-12-09T18:21:27.385Z,0.61
2022-12-09T18:23:54.062Z,0.62
2022-12-09T18:26:22.577Z,0.58
2022-12-09T18:28:56.143Z,0.55
2022-12-09T18:31:23.186Z,0.54
2022-12-09T18:33:49.740Z,0.52
2022-12-09T18:36:17.633Z,0.51
2022-12-09T18:38:44.381Z,0.50
2022-12-09T18:41:14.680Z,0.50
2022-12-09T18:43:42.461Z,0.47
2022-12-09T18:46:13.557Z,0.46
2022-12-09T18:48:40.620Z,0.45
2022-12-09T18:51:13.838Z,0.39
2022-12-09T18:53:40.418Z,0.38
2022-12-09T18:56:07.139Z,0.42
2022-12-09T18:59:04.262Z,0.35
2022-12-09T19:01:25.261Z,0.28
2022-12-09T19:03:54.221Z,0.27
2022-12-09T19:06:21.116Z,0.25
2022-12-09T19:08:48.409Z,0.24
2022-12-09T19:11:14.945Z,0.24
2022-12-09T19:13:41.551Z,0.19
2022-12-09T19:16:08.164Z,0.25
2022-12-09T19:18:34.801Z,0.26
2022-12-09T19:21:09.190Z,0.29
2022-12-09T19:23:36.923Z,0.12
2022-12-09T19:26:03.641Z,0.13
2022-12-09T19:28:30.228Z,0.22
2022-12-09T19:30:56.857Z,0.26
2022-12-09T19:33:23.423Z,0.29
2022-12-09T19:35:49.994Z,0.30
2022-12-09T19:38:16.545Z,0.26
2022-12-09T19:40:43.154Z,0.30
2022-12-09T19:43:09.707Z,0.38
2022-12-09T19:45:36.245Z,0.44
2022-12-09T19:48:02.882Z,0.33
2022-12-09T19:50:29.432Z,0.28
2022-12-09T19:52:56.032Z,0.30
2022-12-09T19:55:22.600Z,0.34
2022-12-09T19:57:49.109Z,0.35
2022-12-09T20:00:15.942Z,0.30
2022-12-09T20:02:42.582Z,0.29
2022-12-09T20:05:09.221Z,0.33
2022-12-09T20:07:35.782Z,0.38
2022-12-09T20:10:02.297Z,0.36
2022-12-09T20:12:28.871Z,0.34
2022-12-09T20:14:55.397Z,0.28
2022-12-09T20:17:22.227Z,0.25
2022-12-09T20:19:48.836Z,0.27
2022-12-09T20:22:15.428Z,0.33
2022-12-09T20:24:43.426Z,0.34
2022-12-09T20:27:10.207Z,0.33
2022-12-09T20:29:38.191Z,0.31
2022-12-09T20:32:05.793Z,0.35
2022-12-09T20:34:32.392Z,0.41
2022-12-09T20:36:59.234Z,0.38
2022-12-09T20:39:25.864Z,0.36
2022-12-09T20:41:52.517Z,0.35
2022-12-09T20:44:20.167Z,0.32
2022-12-09T20:46:48.224Z,0.41
2022-12-09T20:49:14.987Z,0.33
2022-12-09T20:51:45.197Z,0.29
2022-12-09T20:54:12.585Z,0.25
2022-12-09T20:56:39.321Z,0.23
2022-12-09T20:59:06.783Z,0.29
2022-12-09T21:01:34.800Z,0.28
2022-12-09T21:04:01.823Z,0.36
2022-12-09T21:06:30.259Z,0.39
2022-12-09T21:08:59.942Z,0.46
2022-12-09T21:11:26.921Z,0.63
2022-12-09T21:13:57.058Z,0.55
2022-12-09T21:16:25.514Z,0.56
2022-12-09T21:18:53.037Z,0.55
2022-12-09T21:21:20.586Z,0.60
2022-12-09T21:23:47.465Z,0.54
2022-12-09T21:26:15.357Z,0.59
2022-12-09T21:28:42.746Z,0.57
2022-12-09T21:31:10.580Z,0.60
2022-12-09T21:33:37.822Z,0.62
2022-12-09T21:36:05.760Z,0.62
2022-12-09T21:38:32.359Z,0.63
2022-12-09T21:41:06.508Z,0.69
2022-12-09T21:43:33.953Z,0.70
2022-12-09T21:46:11.889Z,0.72
2022-12-09T21:48:39.121Z,0.76
2022-12-09T21:51:06.633Z,0.78
2022-12-09T21:53:33.207Z,0.80
2022-12-09T21:56:04.276Z,0.86
2022-12-09T21:58:31.662Z,0.91
2022-12-09T22:00:58.527Z,0.93
2022-12-09T22:03:25.636Z,1.03
2022-12-09T22:05:56.729Z,1.08
2022-12-09T22:08:24.995Z,1.07
2022-12-09T22:10:51.606Z,1.09
2022-12-09T22:13:18.195Z,1.07
2022-12-09T22:15:44.712Z,1.07
2022-12-09T22:18:11.246Z,1.07
2022-12-09T22:21:15.825Z,1.10
2022-12-09T22:23:24.387Z,1.11
2022-12-09T22:25:50.950Z,1.16
2022-12-09T22:28:17.469Z,1.23
2022-12-09T22:30:44.168Z,1.23
2022-12-09T22:33:10.750Z,1.25
2022-12-09T22:35:37.268Z,1.28
2022-12-09T22:38:10.201Z,1.25
2022-12-09T22:40:39.544Z,1.24
2022-12-09T22:43:06.442Z,1.28
2022-12-09T22:45:35.138Z,1.30
2022-12-09T22:48:01.804Z,1.31
2022-12-09T22:50:28.393Z,1.28
2022-12-09T22:52:55.040Z,1.28
2022-12-09T22:55:21.624Z,1.27
2022-12-09T22:57:48.147Z,1.32
2022-12-09T23:00:14.804Z,1.32
2022-12-09T23:02:41.543Z,1.45
2022-12-09T23:05:08.261Z,1.40
2022-12-09T23:07:35.631Z,1.32
2022-12-09T23:10:02.448Z,1.27
2022-12-09T23:12:29.021Z,1.23
2022-12-09T23:14:55.581Z,1.18
2022-12-09T23:17:22.142Z,1.18
2022-12-09T23:19:48.703Z,1.24
2022-12-09T23:22:15.249Z,1.25
2022-12-09T23:24:41.785Z,1.23
2022-12-09T23:27:08.349Z,1.21
2022-12-09T23:29:34.859Z,1.17
2022-12-09T23:32:01.407Z,1.18
2022-12-09T23:34:27.938Z,1.19
2022-12-09T23:36:55.778Z,1.15
2022-12-09T23:39:22.352Z,1.13
2022-12-09T23:41:48.954Z,1.11
2022-12-09T23:44:16.704Z,1.11
2022-12-09T23:46:43.296Z,1.11
2022-12-09T23:49:09.905Z,1.18
2022-12-09T23:51:38.198Z,1.17
2022-12-09T23:54:06.036Z,1.20
2022-12-09T23:56:34.953Z,1.17
2022-12-09T23:59:03.502Z,1.16
